De Mossville, Kentucky
Current Conditions -  °F | °C
As of 7:53 AM on Monday 24 Nov 2014 (Local Time) from KLUK Reporting Station
Broken Clouds Broken Clouds  
Wind Chill: 61°   Ceiling: 4200
Heat Index: 61°   Visibility: 10mi
Dew Point: 53°   Wind: 31mph
Humidity: 75%   Direction: 200°SSW
Pressure: 29.31"   Gusts: 43mph
Location:  38.8°N, 84.42°W
Report Text: KLUK 241253Z 20027G37KT 10SM FEW036 BKN042 BKN080 16/12 A2931 RMK AO2 PK WND 20037/1253 RAB32E42 SLP924 P0000 T01610117
Loading
Personal Weather Stations






























Interactive Weather Map New forecast layout! Learn more

10-Day Weather Forecast

Advertisements
Track Severe Weather on mobile